createdAt,value
2023-04-04T17:12:32.418Z,58
2023-04-04T17:13:37.819Z,54
2023-04-04T17:14:44.364Z,54
2023-04-04T17:18:31.133Z,54
2023-04-04T17:19:37.302Z,46
2023-04-04T17:20:43.586Z,53
2023-04-04T17:21:49.789Z,54
2023-04-04T17:22:55.934Z,56
2023-04-04T17:24:02.216Z,57
2023-04-04T17:25:08.478Z,58
2023-04-04T17:26:14.498Z,58
2023-04-04T17:27:20.869Z,59
2023-04-04T17:28:27.153Z,60
2023-04-04T17:29:33.159Z,60
2023-04-04T17:30:39.351Z,61
2023-04-04T17:31:45.562Z,61
2023-04-04T17:32:51.777Z,61
2023-04-04T17:33:58.136Z,61
2023-04-04T17:35:04.360Z,62
2023-04-04T17:36:10.492Z,62
2023-04-04T17:37:16.749Z,63
2023-04-04T17:38:22.833Z,63
2023-04-04T17:39:29.223Z,63
2023-04-04T17:40:34.306Z,64
2023-04-04T17:41:39.535Z,64
2023-04-04T17:42:45.840Z,64
2023-04-04T17:43:52.102Z,65
2023-04-04T17:44:58.322Z,65
2023-04-04T17:46:04.575Z,65
2023-04-04T17:47:10.614Z,65
2023-04-04T17:48:16.830Z,65
2023-04-04T17:49:23.207Z,66
2023-04-04T17:50:29.243Z,66
2023-04-04T17:51:35.634Z,66
2023-04-04T17:52:41.689Z,66
2023-04-04T17:53:48.013Z,66
2023-04-04T17:56:00.376Z,67
2023-04-04T17:57:05.660Z,67
2023-04-04T17:58:11.978Z,67
2023-04-04T17:59:18.155Z,67
2023-04-04T18:00:24.409Z,68
2023-04-04T18:01:30.527Z,68
2023-04-04T18:02:36.732Z,68
2023-04-04T18:03:43.072Z,68
2023-04-04T18:04:49.073Z,68
2023-04-04T18:05:54.371Z,69
2023-04-04T18:06:59.537Z,69
2023-04-04T18:08:04.812Z,69
2023-04-04T18:09:10.188Z,69
2023-04-04T18:10:16.221Z,70
2023-04-04T18:11:22.474Z,70
2023-04-04T18:12:28.825Z,70
2023-04-04T18:13:34.877Z,70
2023-04-04T18:14:41.234Z,70
2023-04-04T18:15:47.305Z,70
2023-04-04T18:16:53.535Z,70
2023-04-04T18:17:59.737Z,71
2023-04-04T18:19:05.951Z,71
2023-04-04T18:20:12.245Z,71
2023-04-04T18:21:18.519Z,71
2023-04-04T18:23:30.800Z,71
2023-04-04T18:24:36.222Z,72
2023-04-04T18:25:42.350Z,72
2023-04-04T18:26:48.478Z,72
2023-04-04T18:27:54.827Z,72
2023-04-04T18:29:01.061Z,72
2023-04-04T18:30:07.128Z,73
2023-04-04T18:31:13.531Z,73
2023-04-04T18:32:18.760Z,73
2023-04-04T18:33:23.947Z,73
2023-04-04T18:34:30.125Z,73
2023-04-04T18:35:35.274Z,73
2023-04-04T18:36:40.739Z,73
2023-04-04T18:37:46.708Z,74
2023-04-04T18:38:52.933Z,74
2023-04-04T18:39:59.144Z,74
2023-04-04T18:41:05.474Z,74
2023-04-04T18:42:11.588Z,74
2023-04-04T18:43:17.893Z,74
2023-04-04T18:44:24.129Z,74
2023-04-04T18:45:30.224Z,74
2023-04-04T18:46:36.642Z,74
2023-04-04T18:47:42.800Z,74
2023-04-04T18:48:48.869Z,75
2023-04-04T18:49:55.264Z,75
2023-04-04T18:51:00.322Z,75
2023-04-04T18:52:06.746Z,75
2023-04-04T18:53:12.746Z,75
2023-04-04T18:54:18.977Z,75
2023-04-04T18:55:25.205Z,75
2023-04-04T18:56:31.517Z,75
2023-04-04T18:57:37.729Z,76
2023-04-04T18:58:43.040Z,76
2023-04-04T18:59:48.075Z,76
2023-04-04T19:00:53.322Z,76
2023-04-04T19:01:58.712Z,76
2023-04-04T19:03:04.772Z,76
2023-04-04T19:04:11.121Z,76
2023-04-04T19:05:17.210Z,76
2023-04-04T19:06:23.560Z,76
2023-04-04T19:07:29.804Z,76
2023-04-04T19:08:35.863Z,76
2023-04-04T19:09:42.342Z,77
2023-04-04T19:10:48.462Z,77
2023-04-04T19:11:54.643Z,77
2023-04-04T19:13:00.823Z,77
2023-04-04T19:14:06.939Z,77
2023-04-04T19:15:13.162Z,77
2023-04-04T19:16:18.543Z,77
2023-04-04T19:17:24.733Z,77
2023-04-04T19:18:31.084Z,77
2023-04-04T19:19:37.177Z,77
2023-04-04T19:20:43.493Z,77
2023-04-04T19:21:49.486Z,77
2023-04-04T19:22:55.809Z,77
2023-04-04T19:24:00.961Z,78
2023-04-04T19:25:06.362Z,78
2023-04-04T19:26:11.614Z,78
2023-04-04T19:27:16.695Z,78
2023-04-04T19:28:23.047Z,78
2023-04-04T19:29:29.194Z,78
2023-04-04T19:30:35.461Z,78
2023-04-04T19:31:41.685Z,78
2023-04-04T19:32:47.873Z,78
2023-04-04T19:33:54.091Z,78
2023-04-04T19:35:00.326Z,78
2023-04-04T19:36:06.542Z,78
2023-04-04T19:37:12.698Z,78
2023-04-04T19:38:18.981Z,78
2023-04-04T19:39:25.175Z,78
2023-04-04T19:40:31.362Z,79
2023-04-04T19:41:36.728Z,79
2023-04-04T19:42:42.718Z,79
2023-04-04T19:43:49.101Z,79
2023-04-04T19:44:55.150Z,79
2023-04-04T19:46:01.517Z,79
2023-04-04T19:47:07.593Z,79
2023-04-04T19:48:13.979Z,79
2023-04-04T19:49:19.222Z,79
2023-04-04T19:50:24.377Z,79
2023-04-04T19:51:30.656Z,79
2023-04-04T19:52:35.906Z,79
2023-04-04T19:53:41.171Z,79
2023-04-04T19:54:47.203Z,79
2023-04-04T19:55:53.587Z,80
2023-04-04T19:56:59.808Z,80
2023-04-04T19:58:05.970Z,80
2023-04-04T20:00:18.396Z,80
2023-04-04T20:01:24.503Z,80
2023-04-04T20:02:30.821Z,80
2023-04-04T20:03:37.094Z,80
2023-04-04T20:04:43.210Z,80
2023-04-04T20:05:49.517Z,80
2023-04-04T20:06:55.772Z,80
2023-04-04T20:08:01.027Z,80
2023-04-04T20:09:07.052Z,80
2023-04-04T20:10:13.411Z,80
2023-04-04T20:11:19.664Z,80
2023-04-04T20:12:25.901Z,80
2023-04-04T20:13:32.072Z,81
2023-04-04T20:14:38.207Z,81
2023-04-04T20:15:44.505Z,80
2023-04-04T20:16:49.713Z,81
2023-04-04T20:17:54.998Z,81
2023-04-04T20:19:01.247Z,81
2023-04-04T20:20:07.373Z,81
2023-04-04T20:21:13.543Z,81
2023-04-04T20:22:19.882Z,81
2023-04-04T20:23:25.929Z,81
2023-04-04T20:24:32.287Z,81
2023-04-04T20:25:38.507Z,81
2023-04-04T20:26:44.673Z,81
2023-04-04T20:27:50.945Z,81
2023-04-04T20:28:57.165Z,81
2023-04-04T20:30:03.393Z,81
2023-04-04T20:31:09.621Z,82
2023-04-04T20:32:14.693Z,81
2023-04-04T20:33:20.972Z,81
2023-04-04T20:34:27.289Z,82
2023-04-04T20:35:33.498Z,82
2023-04-04T20:36:39.697Z,82
2023-04-04T20:37:45.944Z,82
2023-04-04T20:38:52.004Z,82
2023-04-04T20:39:57.392Z,82
2023-04-04T20:41:02.476Z,82
2023-04-04T20:42:07.723Z,82
2023-04-04T20:43:13.113Z,82
2023-04-04T20:44:18.388Z,82
2023-04-04T20:45:23.564Z,82
2023-04-04T20:46:29.813Z,82
2023-04-04T20:47:35.979Z,82
2023-04-04T20:48:42.216Z,82
2023-04-04T20:49:48.437Z,82
2023-04-04T20:50:54.702Z,82
2023-04-04T20:52:00.932Z,82
2023-04-04T20:53:06.966Z,82
2023-04-04T20:54:13.343Z,82
2023-04-04T20:55:19.403Z,82
2023-04-04T20:56:25.624Z,82
2023-04-04T20:57:31.998Z,82
2023-04-04T20:58:38.231Z,82
2023-04-04T20:59:43.296Z,83
2023-04-04T21:00:49.522Z,83
2023-04-04T21:01:55.750Z,83
2023-04-04T21:03:02.085Z,83
2023-04-04T21:04:08.165Z,83
2023-04-04T21:05:14.401Z,83
2023-04-04T21:06:20.775Z,83
2023-04-04T21:07:25.883Z,83
2023-04-04T21:08:31.282Z,83
2023-04-04T21:09:37.302Z,83
2023-04-04T21:10:43.655Z,83
2023-04-04T21:11:49.745Z,83
2023-04-04T21:12:55.952Z,83
2023-04-04T21:14:02.179Z,83
2023-04-04T21:15:08.554Z,83
2023-04-04T21:16:14.622Z,83
2023-04-04T21:17:20.886Z,83
2023-04-04T21:18:27.047Z,83
2023-04-04T21:19:33.394Z,83
2023-04-04T21:20:39.662Z,83
2023-04-04T21:21:45.797Z,83
2023-04-04T21:22:51.097Z,83
2023-04-04T21:23:57.320Z,83
2023-04-04T21:25:03.504Z,83
2023-04-04T21:26:09.800Z,83
2023-04-04T21:27:15.864Z,83
2023-04-04T21:28:22.016Z,83
2023-04-04T21:29:28.384Z,83
2023-04-04T21:30:33.591Z,83
2023-04-04T21:31:38.755Z,83
2023-04-04T21:32:44.094Z,83
2023-04-04T21:34:55.404Z,84
2023-04-04T21:36:01.776Z,83
2023-04-04T21:37:07.020Z,83
2023-04-04T21:38:12.108Z,83
2023-04-04T21:39:18.448Z,83
2023-04-04T21:41:30.825Z,84
2023-04-04T21:42:36.973Z,84
2023-04-04T21:43:43.274Z,84
2023-04-04T21:44:49.590Z,84
2023-04-04T21:45:55.795Z,84
2023-04-04T21:47:01.847Z,84
2023-04-04T21:48:08.072Z,84
2023-04-04T21:49:14.403Z,84
2023-04-04T21:50:20.642Z,84
2023-04-04T21:51:26.769Z,84
2023-04-04T21:52:32.066Z,84
2023-04-04T21:53:38.346Z,84
2023-04-04T21:54:44.382Z,84
2023-04-04T21:55:50.809Z,84
2023-04-04T21:56:56.981Z,84
2023-04-04T21:58:03.089Z,84
2023-04-04T21:59:09.432Z,84
2023-04-04T22:00:15.670Z,84
2023-04-04T22:01:20.902Z,84
2023-04-04T22:02:26.049Z,84
2023-04-04T22:03:31.302Z,84
2023-04-04T22:04:36.433Z,84
2023-04-04T22:05:42.709Z,84
2023-04-04T22:06:48.968Z,84
2023-04-04T22:07:55.242Z,84
2023-04-04T22:09:01.417Z,84
2023-04-04T22:10:07.543Z,84
2023-04-04T22:11:13.891Z,84
2023-04-04T22:12:19.951Z,84
2023-04-04T22:13:26.333Z,84
2023-04-04T22:14:32.542Z,84
2023-04-04T22:15:38.608Z,84
2023-04-04T22:16:44.817Z,84
2023-04-04T22:17:51.223Z,84
2023-04-04T22:18:56.298Z,84
2023-04-04T22:20:02.618Z,84
2023-04-04T22:21:08.857Z,84
2023-04-04T22:22:15.100Z,84
2023-04-04T22:23:21.145Z,85
2023-04-04T22:24:27.501Z,85
2023-04-04T22:25:33.763Z,85
2023-04-04T22:26:38.829Z,85
2023-04-04T22:27:44.063Z,84
2023-04-04T22:28:49.312Z,85
2023-04-04T22:29:54.658Z,85
2023-04-04T22:31:00.837Z,85
2023-04-04T22:32:07.166Z,85
2023-04-04T22:33:13.373Z,85
2023-04-04T22:34:19.427Z,85
2023-04-04T22:35:25.720Z,85
2023-04-04T22:36:31.872Z,85
2023-04-04T22:37:38.180Z,85
2023-04-04T22:38:44.309Z,85
2023-04-04T22:39:50.657Z,85
2023-04-04T22:40:56.775Z,85
2023-04-04T22:42:03.137Z,85
2023-04-04T22:43:09.278Z,85
2023-04-04T22:44:14.562Z,85
2023-04-04T22:45:20.743Z,85
2023-04-04T22:46:26.973Z,85
2023-04-04T22:47:33.232Z,85
2023-04-04T22:48:39.413Z,85
2023-04-04T22:49:45.503Z,85
2023-04-04T22:50:51.878Z,85
2023-04-04T22:51:56.980Z,85
2023-04-04T22:53:02.306Z,85
2023-04-04T22:54:08.555Z,85
2023-04-04T22:55:14.793Z,85
2023-04-04T22:56:20.832Z,85
2023-04-04T22:57:27.062Z,85
2023-04-04T22:58:33.521Z,85
2023-04-04T22:59:39.594Z,85
2023-04-04T23:00:45.825Z,85
2023-04-04T23:02:58.295Z,85
2023-04-04T23:04:04.594Z,85
2023-04-04T23:05:10.667Z,85
2023-04-04T23:06:16.921Z,85
2023-04-04T23:07:22.295Z,85
2023-04-04T23:08:28.263Z,85
2023-04-04T23:09:34.571Z,85
2023-04-04T23:10:40.700Z,85
2023-04-04T23:11:46.928Z,85
2023-04-04T23:12:53.257Z,86
2023-04-04T23:13:59.355Z,85
2023-04-04T23:15:05.689Z,85
2023-04-04T23:16:10.983Z,86
2023-04-04T23:17:16.082Z,85
2023-04-04T23:18:21.460Z,85
2023-04-04T23:19:26.661Z,86
2023-04-04T23:20:32.872Z,86
2023-04-04T23:21:39.108Z,86
2023-04-04T23:22:45.356Z,86
2023-04-04T23:23:51.397Z,86
2023-04-04T23:24:57.789Z,86
2023-04-04T23:26:03.823Z,86
2023-04-04T23:27:10.215Z,86
2023-04-04T23:28:16.427Z,86
2023-04-04T23:29:22.698Z,86
2023-04-04T23:30:28.943Z,86
2023-04-04T23:31:34.973Z,86
2023-04-04T23:32:41.297Z,86
2023-04-04T23:33:46.358Z,86
2023-04-04T23:34:52.728Z,86
2023-04-04T23:35:58.894Z,86
2023-04-04T23:37:05.163Z,86
2023-04-04T23:38:11.342Z,86
2023-04-04T23:39:17.570Z,86
2023-04-04T23:40:23.799Z,86
2023-04-04T23:41:29.057Z,86
2023-04-04T23:42:34.298Z,86
2023-04-04T23:43:40.361Z,86
2023-04-04T23:44:46.587Z,86
2023-04-04T23:45:52.950Z,86
2023-04-04T23:46:59.038Z,86
2023-04-04T23:48:05.412Z,86
2023-04-04T23:49:11.604Z,86
2023-04-04T23:50:17.792Z,86
2023-04-04T23:51:23.986Z,86
2023-04-04T23:52:30.248Z,86
2023-04-04T23:53:36.386Z,86
2023-04-04T23:54:42.538Z,86
2023-04-04T23:55:48.952Z,86
2023-04-04T23:56:54.125Z,86
2023-04-04T23:58:00.387Z,87
2023-04-04T23:59:06.590Z,87
